Time;durP1;ratioP1;P1;durP2;ratioP2;P2;SDS_P1;SDS_P2;PMS_P1;PMS_P2;Temp;Humidity;BMP_temperature;BMP_pressure;BME280_temperature;BME280_humidity;BME280_pressure;Samples;Min_cycle;Max_cycle;Signal;HPM_P1;HPM_P2
2021/09/05 00:02:15;;;;;;;;;2.67;2.67;;;;;19.29;49.25;98948.50;4955509;28;112199;-85
2021/09/05 00:04:42;;;;;;;;;3.00;3.00;;;;;19.27;48.95;98954.25;4949353;28;102446;-85
2021/09/05 00:07:09;;;;;;;;;4.00;3.00;;;;;19.26;49.14;98949.84;4964406;28;102447;-85
2021/09/05 00:09:36;;;;;;;;;3.00;2.33;;;;;19.26;49.12;98958.06;4959093;28;102397;-85
2021/09/05 00:12:04;;;;;;;;;4.00;3.00;;;;;19.24;49.00;98962.94;4946867;28;104294;-85
2021/09/05 00:14:31;;;;;;;;;3.33;2.00;;;;;19.22;48.86;98953.31;4960267;27;102682;-85
2021/09/05 00:16:59;;;;;;;;;3.00;3.00;;;;;19.22;48.83;98958.81;4947203;28;102700;-85
2021/09/05 00:19:26;;;;;;;;;3.00;3.00;;;;;19.21;48.81;98951.66;4959445;28;102947;-85
2021/09/05 00:21:53;;;;;;;;;2.33;2.33;;;;;19.18;48.82;98953.78;4958131;28;104412;-85
2021/09/05 00:24:21;;;;;;;;;2.67;2.00;;;;;19.18;48.70;98953.00;4944401;28;102548;-85
2021/09/05 00:26:48;;;;;;;;;2.00;2.00;;;;;19.17;48.71;98948.59;4965635;28;102664;-85
2021/09/05 00:29:16;;;;;;;;;1.33;1.00;;;;;19.18;48.58;98953.00;4962512;28;102517;-85
2021/09/05 00:31:43;;;;;;;;;3.00;2.00;;;;;19.17;48.74;98952.16;4951298;28;104112;-85
2021/09/05 00:34:10;;;;;;;;;2.33;1.67;;;;;19.15;48.28;98950.72;4961113;28;104218;-85
2021/09/05 00:36:37;;;;;;;;;3.00;2.00;;;;;19.11;48.36;98952.31;4937671;28;102556;-85
2021/09/05 00:39:06;;;;;;;;;3.00;3.00;;;;;19.09;48.20;98955.28;4964180;28;102711;-85
2021/09/05 00:41:33;;;;;;;;;2.67;2.00;;;;;19.09;48.40;98959.97;4956744;28;103795;-85
2021/09/05 00:44:05;;;;;;;;;3.33;3.00;;;;;19.03;48.34;98949.97;4960773;28;104016;-85
2021/09/05 00:46:33;;;;;;;;;2.33;2.33;;;;;19.05;48.38;98953.28;4968920;28;102325;-85
2021/09/05 00:49:01;;;;;;;;;2.00;2.00;;;;;19.03;48.25;98960.94;4964054;28;103500;-85
2021/09/05 00:51:32;;;;;;;;;2.00;1.67;;;;;19.01;48.53;98963.91;4947353;28;108907;-86
2021/09/05 00:53:59;;;;;;;;;2.00;2.00;;;;;19.00;48.21;98966.91;4968647;28;103786;-85
2021/09/05 00:56:28;;;;;;;;;3.00;2.00;;;;;18.99;48.19;98959.78;4974781;28;102556;-85
2021/09/05 00:59:02;;;;;;;;;2.00;2.00;;;;;18.98;47.73;98963.56;4941429;28;102605;-85
2021/09/05 01:01:30;;;;;;;;;3.00;2.00;;;;;18.97;47.85;98967.38;4943251;28;108943;-85
2021/09/05 01:03:57;;;;;;;;;2.00;2.00;;;;;18.95;47.69;98967.66;4954103;28;102610;-85
2021/09/05 01:06:24;;;;;;;;;2.67;2.67;;;;;18.92;48.14;98964.56;4949547;28;102598;-85
2021/09/05 01:08:52;;;;;;;;;3.00;3.00;;;;;18.92;47.93;98964.56;4941679;28;102752;-85
2021/09/05 01:11:19;;;;;;;;;0.00;0.00;;;;;18.90;48.22;98962.06;4938750;28;104134;-85
2021/09/05 01:13:46;;;;;;;;;2.00;2.00;;;;;18.88;47.92;98961.47;4935352;28;102648;-85
2021/09/05 01:16:27;;;;;;;;;2.67;2.67;;;;;18.86;47.69;98960.06;4965544;28;102651;-85
2021/09/05 01:18:55;;;;;;;;;3.67;2.00;;;;;18.86;47.72;98968.28;4962158;28;104169;-85
2021/09/05 01:21:22;;;;;;;;;2.33;2.00;;;;;18.84;47.50;98968.53;4956414;28;104396;-85
2021/09/05 01:23:49;;;;;;;;;3.00;3.00;;;;;18.84;47.72;98970.44;4960781;28;102707;-85
2021/09/05 01:26:16;;;;;;;;;2.67;2.00;;;;;18.82;47.59;98970.69;4939766;28;102735;-85
2021/09/05 01:28:45;;;;;;;;;4.00;2.00;;;;;18.80;47.56;98961.88;4944415;28;102829;-85
2021/09/05 01:31:13;;;;;;;;;2.67;2.67;;;;;18.78;47.35;98968.69;4958205;28;104105;-85
2021/09/05 01:33:40;;;;;;;;;4.00;3.00;;;;;18.79;47.31;98967.59;4948419;28;102724;-85
2021/09/05 01:36:07;;;;;;;;;3.33;3.00;;;;;18.76;47.20;98968.09;4962423;28;102574;-86
2021/09/05 01:38:34;;;;;;;;;3.00;2.00;;;;;18.73;47.30;98976.81;4965503;28;103059;-85
2021/09/05 01:41:01;;;;;;;;;4.00;3.67;;;;;18.70;47.22;98973.47;4961272;28;109104;-86
2021/09/05 01:43:28;;;;;;;;;2.00;2.00;;;;;18.70;46.71;98976.22;4974863;28;103350;-85
2021/09/05 01:45:56;;;;;;;;;3.33;3.00;;;;;18.70;47.23;98972.63;4941770;28;102626;-86
2021/09/05 01:48:23;;;;;;;;;1.00;1.00;;;;;18.68;46.90;98974.81;4954365;28;102402;-85
2021/09/05 01:50:50;;;;;;;;;3.00;3.00;;;;;18.68;47.20;98981.13;4968805;28;103970;-85
2021/09/05 01:53:17;;;;;;;;;1.67;1.33;;;;;18.67;46.37;98979.44;4972639;28;102175;-85
2021/09/05 01:55:44;;;;;;;;;3.00;2.00;;;;;18.65;46.79;98970.63;4963245;28;102497;-85
2021/09/05 01:58:11;;;;;;;;;1.00;1.00;;;;;18.65;47.29;98980.75;4965916;28;102713;-86
2021/09/05 02:00:38;;;;;;;;;3.00;2.00;;;;;18.63;46.64;98982.91;4961703;28;104380;-85
2021/09/05 02:03:06;;;;;;;;;2.33;2.00;;;;;18.60;46.51;98978.75;4963620;28;102499;-85
2021/09/05 02:05:33;;;;;;;;;2.67;2.33;;;;;18.59;46.53;98970.78;4968021;28;103302;-85
2021/09/05 02:08:00;;;;;;;;;2.00;2.00;;;;;18.56;46.62;98977.56;4957238;28;103297;-85
2021/09/05 02:10:27;;;;;;;;;4.00;2.33;;;;;18.55;46.30;98978.63;4951836;28;104280;-85
2021/09/05 02:12:54;;;;;;;;;2.00;2.00;;;;;18.55;46.51;98981.38;4960371;28;102432;-85
2021/09/05 02:15:22;;;;;;;;;3.00;2.67;;;;;18.53;46.81;98978.06;4962809;28;102578;-85
2021/09/05 02:17:49;;;;;;;;;2.33;2.00;;;;;18.51;46.76;98977.44;4978337;28;103821;-85
2021/09/05 02:20:16;;;;;;;;;3.67;3.00;;;;;18.53;46.74;98985.44;4980068;28;104081;-85
2021/09/05 02:22:44;;;;;;;;;3.00;3.00;;;;;18.52;46.68;98990.06;4969620;28;102514;-85
2021/09/05 02:25:11;;;;;;;;;3.00;2.00;;;;;18.51;46.57;98985.66;4976913;28;102568;-85
2021/09/05 02:27:38;;;;;;;;;3.00;2.00;;;;;18.49;46.61;98987.81;4959517;28;102656;-85
2021/09/05 02:30:06;;;;;;;;;2.00;2.00;;;;;18.47;46.32;98989.13;4966407;28;104012;-85
2021/09/05 02:32:33;;;;;;;;;3.00;2.00;;;;;18.45;46.32;98983.06;4967224;28;105905;-85
2021/09/05 02:35:00;;;;;;;;;3.00;2.33;;;;;18.46;46.48;98987.47;4956058;28;102692;-85
2021/09/05 02:37:28;;;;;;;;;2.00;2.00;;;;;18.44;46.73;98981.38;4947183;28;102617;-85
2021/09/05 02:39:55;;;;;;;;;2.00;2.00;;;;;18.43;46.44;98994.25;4961443;28;104316;-85
2021/09/05 02:42:22;;;;;;;;;2.67;2.00;;;;;18.42;45.97;98986.25;4972777;28;102473;-85
2021/09/05 02:44:49;;;;;;;;;2.67;2.00;;;;;18.40;46.69;98992.00;4959800;28;102380;-85
2021/09/05 02:47:16;;;;;;;;;2.00;2.00;;;;;18.37;46.43;98992.47;4971334;28;102656;-85
2021/09/05 02:49:43;;;;;;;;;3.67;2.00;;;;;18.39;45.72;98992.22;4966254;28;104019;-85
2021/09/05 02:52:10;;;;;;;;;4.00;3.00;;;;;18.37;46.23;98986.19;4964023;28;102694;-85
2021/09/05 02:54:38;;;;;;;;;3.00;3.00;;;;;18.37;46.52;98986.19;4971904;28;102136;-85
2021/09/05 02:57:05;;;;;;;;;2.33;2.33;;;;;18.37;46.00;98991.66;4967765;28;103702;-85
2021/09/05 02:59:32;;;;;;;;;2.00;2.00;;;;;18.34;45.91;98990.22;4963355;28;108992;-85
2021/09/05 03:02:00;;;;;;;;;3.00;2.67;;;;;18.32;46.27;98992.38;4973749;28;102699;-85
2021/09/05 03:04:28;;;;;;;;;2.33;2.33;;;;;18.31;45.66;98995.34;4966143;28;102609;-85
2021/09/05 03:06:55;;;;;;;;;3.00;3.00;;;;;18.26;45.74;98994.19;4949956;28;103515;-85
2021/09/05 03:09:22;;;;;;;;;3.33;3.00;;;;;18.27;45.36;98995.00;4951480;28;104235;-85
2021/09/05 03:11:50;;;;;;;;;4.00;3.00;;;;;18.25;45.50;98992.50;4959420;28;102770;-85
2021/09/05 03:14:17;;;;;;;;;2.33;2.33;;;;;18.24;46.22;98998.22;4974145;27;102530;-85
2021/09/05 03:16:44;;;;;;;;;2.33;2.00;;;;;18.22;45.44;99005.84;4977780;28;102817;-86
2021/09/05 03:19:11;;;;;;;;;2.00;2.00;;;;;18.21;45.96;99005.00;4966197;28;104046;-85
2021/09/05 03:21:39;;;;;;;;;3.00;3.00;;;;;18.21;45.94;99006.91;4943793;27;102603;-85
2021/09/05 03:24:06;;;;;;;;;5.00;3.00;;;;;18.20;45.26;99007.97;4967849;28;102640;-86
2021/09/05 03:26:34;;;;;;;;;3.00;2.00;;;;;18.15;45.71;99005.97;4962683;28;105935;-85
2021/09/05 03:29:01;;;;;;;;;3.33;2.00;;;;;18.17;45.75;99020.25;4938599;28;104215;-85
2021/09/05 03:31:28;;;;;;;;;3.00;2.33;;;;;18.18;46.06;99023.81;4972772;28;103226;-86
2021/09/05 03:33:55;;;;;;;;;3.00;2.00;;;;;18.15;45.15;99021.53;4963910;28;102908;-85
2021/09/05 03:36:22;;;;;;;;;2.00;2.00;;;;;18.14;45.69;99020.75;4964631;28;102597;-86
2021/09/05 03:38:49;;;;;;;;;3.00;2.33;;;;;18.12;45.00;99022.03;4969614;28;103880;-86
2021/09/05 03:41:16;;;;;;;;;3.00;3.00;;;;;18.11;44.95;99023.94;4962287;28;105141;-85
2021/09/05 03:43:44;;;;;;;;;2.00;2.00;;;;;18.12;45.30;99024.78;4969223;28;102406;-85
2021/09/05 03:46:11;;;;;;;;;4.67;3.33;;;;;18.08;44.79;99023.59;4968123;28;102694;-85
2021/09/05 03:48:38;;;;;;;;;3.00;2.67;;;;;18.08;45.77;99029.06;4964823;28;104300;-85
2021/09/05 03:51:05;;;;;;;;;3.33;2.67;;;;;18.06;45.20;99021.06;4972618;28;102412;-86
2021/09/05 03:53:32;;;;;;;;;4.00;3.00;;;;;18.06;45.86;99031.19;4956490;28;102465;-85
2021/09/05 03:55:59;;;;;;;;;3.00;3.00;;;;;18.06;44.77;99031.19;4968168;27;102550;-85
2021/09/05 03:58:26;;;;;;;;;3.00;2.00;;;;;18.03;44.87;99035.25;4972748;28;104237;-86
2021/09/05 04:00:53;;;;;;;;;2.67;2.00;;;;;18.01;44.83;99036.56;4957736;28;102176;-85
2021/09/05 04:03:23;;;;;;;;;3.00;2.00;;;;;17.98;45.47;99040.59;4954673;28;104019;-85
2021/09/05 04:05:51;;;;;;;;;3.33;3.00;;;;;17.97;44.68;99043.56;4976750;28;102620;-85
2021/09/05 04:08:18;;;;;;;;;2.67;2.00;;;;;17.97;45.14;99046.31;4941003;28;104622;-85
2021/09/05 04:10:45;;;;;;;;;3.00;3.00;;;;;17.95;44.94;99048.47;4969450;28;103863;-85
2021/09/05 04:13:14;;;;;;;;;6.00;4.00;;;;;17.94;44.53;99055.00;4965515;28;102446;-85
2021/09/05 04:15:41;;;;;;;;;2.00;2.00;;;;;17.92;45.02;99049.75;4960471;28;102570;-85
2021/09/05 04:18:09;;;;;;;;;2.00;1.00;;;;;17.92;44.76;99051.69;4964189;28;104402;-85
2021/09/05 04:20:36;;;;;;;;;3.00;3.00;;;;;17.89;44.65;99043.94;4971624;28;102209;-85
2021/09/05 04:23:04;;;;;;;;;3.00;3.00;;;;;17.89;44.70;99057.59;4946831;28;102515;-85
2021/09/05 04:25:31;;;;;;;;;2.33;2.00;;;;;17.88;44.42;99067.72;4974202;28;102625;-85
2021/09/05 04:27:58;;;;;;;;;3.00;3.00;;;;;17.87;45.12;99060.59;4960373;28;103747;-85
2021/09/05 04:30:25;;;;;;;;;2.33;2.33;;;;;17.88;44.70;99064.16;4957491;28;102470;-85
2021/09/05 04:32:52;;;;;;;;;3.67;3.00;;;;;17.86;44.48;99082.72;4973580;28;104045;-85
2021/09/05 04:35:19;;;;;;;;;4.00;3.00;;;;;17.86;44.68;99069.03;4966595;28;103779;-85
2021/09/05 04:37:46;;;;;;;;;3.67;3.00;;;;;17.83;44.89;99079.38;4957055;28;104271;-85
2021/09/05 04:40:13;;;;;;;;;3.33;3.00;;;;;17.81;45.09;99081.53;4971951;28;102503;-85
2021/09/05 04:42:41;;;;;;;;;3.00;3.00;;;;;17.82;44.92;99085.09;4954626;28;102467;-85
2021/09/05 04:45:09;;;;;;;;;3.00;3.00;;;;;17.78;44.62;99090.22;4950963;28;102239;-85
2021/09/05 04:47:36;;;;;;;;;5.00;3.67;;;;;17.76;44.70;99092.34;4978027;28;104187;-85
2021/09/05 04:50:03;;;;;;;;;3.00;2.00;;;;;17.74;44.70;99088.19;4956300;28;102504;-85
2021/09/05 04:52:30;;;;;;;;;2.33;2.00;;;;;17.75;44.78;99095.28;4945297;28;102457;-85
2021/09/05 04:54:57;;;;;;;;;4.00;3.33;;;;;17.73;43.69;99097.44;4969503;28;102416;-85
2021/09/05 04:57:25;;;;;;;;;4.67;3.00;;;;;17.71;44.42;99100.41;4939881;28;104232;-85
2021/09/05 04:59:52;;;;;;;;;3.00;3.00;;;;;17.68;43.96;99095.41;4963518;28;102744;-85
2021/09/05 05:02:20;;;;;;;;;2.33;2.33;;;;;17.69;43.90;99099.81;4956940;28;102487;-85
2021/09/05 05:04:47;;;;;;;;;3.33;3.00;;;;;17.68;44.59;99102.78;4961577;28;102503;-85
2021/09/05 05:07:14;;;;;;;;;3.00;3.00;;;;;17.67;43.81;99103.84;4962085;28;104080;-85
2021/09/05 05:09:44;;;;;;;;;3.67;2.33;;;;;17.66;44.06;99104.91;4967885;28;102693;-85
2021/09/05 05:12:12;;;;;;;;;2.33;2.00;;;;;17.62;44.09;99101.81;4949747;28;102433;-85
2021/09/05 05:14:39;;;;;;;;;3.00;3.00;;;;;17.62;44.42;99112.75;4963366;28;103592;-85
2021/09/05 05:17:07;;;;;;;;;4.00;2.00;;;;;17.63;44.27;99113.59;4969857;28;104063;-85
2021/09/05 05:19:34;;;;;;;;;3.33;2.00;;;;;17.62;44.37;99118.22;4969889;28;102647;-85
2021/09/05 05:22:01;;;;;;;;;3.00;2.00;;;;;17.58;43.55;99118.88;4966958;28;102664;-85
2021/09/05 05:24:28;;;;;;;;;3.67;3.67;;;;;17.61;45.00;99126.66;4982465;28;102592;-85
2021/09/05 05:26:55;;;;;;;;;3.00;3.00;;;;;17.58;43.50;99127.97;4961385;28;104162;-85
2021/09/05 05:29:22;;;;;;;;;3.00;2.00;;;;;17.58;44.44;99132.56;4961802;28;102237;-85
2021/09/05 05:31:50;;;;;;;;;3.00;3.00;;;;;17.60;43.93;99131.31;4958287;28;102336;-85
2021/09/05 05:34:17;;;;;;;;;3.00;2.00;;;;;17.61;43.87;99138.41;4949601;28;103765;-85
2021/09/05 05:36:44;;;;;;;;;2.67;2.67;;;;;17.59;44.33;99128.78;4968128;27;104023;-85
2021/09/05 05:39:11;;;;;;;;;1.00;1.00;;;;;17.58;44.02;99143.50;4975568;28;102581;-85
2021/09/05 05:41:38;;;;;;;;;2.67;2.00;;;;;17.59;44.39;99140.56;4966684;28;102477;-85
2021/09/05 05:44:06;;;;;;;;;2.00;2.00;;;;;17.58;44.64;99141.63;4982271;28;102599;-85
2021/09/05 05:46:36;;;;;;;;;2.00;2.00;;;;;17.59;44.03;99146.03;4960284;28;109166;-85
2021/09/05 05:49:04;;;;;;;;;2.67;2.67;;;;;17.58;44.04;99147.09;4971172;28;102337;-85
2021/09/05 05:51:31;;;;;;;;;2.67;2.67;;;;;17.59;44.87;99146.03;4948064;28;103773;-85
2021/09/05 05:53:58;;;;;;;;;3.00;3.00;;;;;17.62;44.37;99153.78;4966473;28;102361;-85
2021/09/05 05:56:26;;;;;;;;;3.00;2.67;;;;;17.61;44.15;99143.06;4955497;27;104286;-85
2021/09/05 05:58:53;;;;;;;;;2.00;2.00;;;;;17.60;43.85;99144.16;4971452;27;103369;-85
2021/09/05 06:01:20;;;;;;;;;3.00;2.00;;;;;17.59;44.16;99148.78;4957738;28;103533;-85
2021/09/05 06:03:47;;;;;;;;;3.00;2.00;;;;;17.59;44.80;99159.72;4964240;28;106449;-85
2021/09/05 06:06:14;;;;;;;;;0.67;0.00;;;;;17.59;44.31;99159.72;4983370;28;104019;-85
2021/09/05 06:08:41;;;;;;;;;3.00;2.00;;;;;17.59;44.45;99154.25;4945135;28;103791;-85
2021/09/05 06:11:08;;;;;;;;;2.00;2.00;;;;;17.61;44.67;99160.31;4951688;28;102723;-84
2021/09/05 06:13:35;;;;;;;;;2.00;2.00;;;;;17.60;44.09;99160.56;4980444;28;102599;-85
2021/09/05 06:16:03;;;;;;;;;3.00;3.00;;;;;17.59;44.48;99159.72;4971627;28;112386;-85
2021/09/05 06:18:30;;;;;;;;;3.00;2.33;;;;;17.59;44.03;99162.44;4971634;28;102320;-85
2021/09/05 06:20:57;;;;;;;;;2.00;2.00;;;;;17.57;43.76;99164.53;4963212;28;102672;-85
2021/09/05 06:23:24;;;;;;;;;2.67;2.00;;;;;17.58;44.83;99160.78;4955181;28;102592;-85
2021/09/05 06:25:51;;;;;;;;;2.67;2.67;;;;;17.59;44.47;99167.09;4963128;28;104226;-85
2021/09/05 06:28:18;;;;;;;;;3.00;2.00;;;;;17.57;45.02;99170.00;4973179;28;110811;-85
2021/09/05 06:30:45;;;;;;;;;2.00;2.00;;;;;17.57;44.57;99172.75;4963278;28;102462;-84
2021/09/05 06:33:12;;;;;;;;;3.00;2.00;;;;;17.58;45.30;99171.72;4962480;28;102963;-85
2021/09/05 06:35:39;;;;;;;;;3.00;2.00;;;;;17.60;44.43;99177.81;4966011;28;104074;-84
2021/09/05 06:38:06;;;;;;;;;2.00;2.00;;;;;17.62;44.64;99175.66;4962930;28;103694;-85
2021/09/05 06:40:33;;;;;;;;;2.00;2.00;;;;;17.65;44.79;99177.09;4965448;28;109695;-85
2021/09/05 06:43:00;;;;;;;;;3.00;2.00;;;;;17.67;45.08;99174.94;4971964;28;102469;-85
2021/09/05 06:45:28;;;;;;;;;3.00;2.33;;;;;17.67;44.55;99188.63;4948514;28;104122;-85
2021/09/05 06:47:55;;;;;;;;;2.00;1.33;;;;;17.64;44.75;99186.38;4964692;28;103165;-85
2021/09/05 06:50:22;;;;;;;;;2.00;1.33;;;;;17.66;44.52;99179.59;4962581;28;102589;-85
2021/09/05 06:52:49;;;;;;;;;3.00;1.67;;;;;17.66;44.70;99189.69;4964369;28;103637;-85
2021/09/05 06:55:16;;;;;;;;;3.00;2.00;;;;;17.64;45.12;99192.69;4965480;28;104398;-85
2021/09/05 06:57:43;;;;;;;;;1.67;1.67;;;;;17.65;45.45;99188.84;4960852;28;102613;-85
2021/09/05 07:00:10;;;;;;;;;3.00;2.33;;;;;17.63;44.86;99196.47;4963695;28;102523;-85
2021/09/05 07:02:37;;;;;;;;;2.67;2.33;;;;;17.64;45.80;99195.41;4970795;28;102597;-85
2021/09/05 07:05:05;;;;;;;;;2.00;1.33;;;;;17.67;45.33;99202.31;4958571;28;109654;-85
2021/09/05 07:07:42;;;;;;;;;2.00;1.33;;;;;17.69;45.78;99219.34;4960080;28;102615;-85
2021/09/05 07:10:09;;;;;;;;;3.00;1.67;;;;;17.68;45.04;99218.50;4970752;28;103483;-84
2021/09/05 07:12:40;;;;;;;;;1.00;1.00;;;;;17.70;46.42;99224.53;4955398;28;103699;-85
2021/09/05 07:15:08;;;;;;;;;2.00;1.00;;;;;17.69;45.42;99225.63;4958074;28;104172;-85
2021/09/05 07:17:35;;;;;;;;;1.00;1.00;;;;;17.70;45.63;99224.53;4956245;28;102997;-85
2021/09/05 07:20:03;;;;;;;;;2.00;1.00;;;;;17.69;46.09;99222.91;4953565;28;102525;-85
2021/09/05 07:22:30;;;;;;;;;2.00;2.00;;;;;17.69;45.93;99230.28;4960151;28;102368;-85
2021/09/05 07:24:57;;;;;;;;;2.33;1.00;;;;;17.68;46.26;99223.97;4968941;28;104360;-85
2021/09/05 07:27:26;;;;;;;;;2.00;2.00;;;;;17.71;45.74;99237.16;4952734;28;102151;-85
2021/09/05 07:29:53;;;;;;;;;2.00;1.00;;;;;17.71;46.59;99228.97;4963275;28;102413;-85
2021/09/05 07:32:20;;;;;;;;;2.00;2.00;;;;;17.73;46.12;99231.47;4965935;28;102204;-85
2021/09/05 07:34:48;;;;;;;;;2.00;2.00;;;;;17.75;45.84;99238.38;4957841;28;104200;-85
2021/09/05 07:37:15;;;;;;;;;1.00;1.00;;;;;17.80;46.88;99238.50;4964633;27;105312;-85
2021/09/05 07:39:42;;;;;;;;;1.00;1.00;;;;;17.80;46.38;99241.25;4953092;28;102090;-85
2021/09/05 07:42:09;;;;;;;;;1.33;1.33;;;;;17.81;46.51;99248.41;4969805;28;105763;-85
2021/09/05 07:44:36;;;;;;;;;1.00;1.00;;;;;17.83;46.63;99248.16;4960389;28;110142;-85
2021/09/05 07:47:03;;;;;;;;;0.00;0.00;;;;;17.85;46.51;99259.69;4962043;28;102744;-85
2021/09/05 07:49:30;;;;;;;;;1.00;0.67;;;;;17.87;47.09;99251.28;4958365;28;103354;-85
2021/09/05 07:51:57;;;;;;;;;1.00;1.00;;;;;17.89;46.66;99262.81;4963701;28;104510;-85
2021/09/05 07:54:24;;;;;;;;;1.00;1.00;;;;;17.89;46.81;99266.38;4952342;28;104353;-85
2021/09/05 07:56:51;;;;;;;;;1.00;1.00;;;;;17.92;46.45;99268.63;4971122;28;102537;-85
2021/09/05 07:59:19;;;;;;;;;0.33;0.33;;;;;17.94;47.03;99271.16;4960602;28;102703;-84
2021/09/05 08:01:46;;;;;;;;;1.67;0.00;;;;;17.93;46.30;99272.22;4954520;28;102539;-84
2021/09/05 08:04:13;;;;;;;;;0.00;0.00;;;;;17.96;46.41;99277.25;4958924;28;104367;-85
2021/09/05 08:06:40;;;;;;;;;1.00;1.00;;;;;17.99;47.21;99283.06;4962770;28;102329;-85
2021/09/05 08:09:07;;;;;;;;;1.00;1.00;;;;;17.99;46.98;99280.34;4960111;28;102740;-85
2021/09/05 08:11:34;;;;;;;;;1.00;0.00;;;;;18.01;46.84;99282.84;4960864;28;102462;-85
2021/09/05 08:14:01;;;;;;;;;0.00;0.00;;;;;18.00;46.73;99284.75;4959007;28;104088;-85
2021/09/05 08:16:28;;;;;;;;;0.00;0.00;;;;;18.04;47.17;99291.44;4947279;28;102384;-85
2021/09/05 08:18:56;;;;;;;;;1.00;0.00;;;;;18.05;46.61;99289.53;4965826;28;102799;-84
2021/09/05 08:21:23;;;;;;;;;1.00;1.00;;;;;18.06;46.41;99285.69;4958251;28;102480;-85
2021/09/05 08:23:50;;;;;;;;;0.00;0.00;;;;;18.07;46.92;99295.59;4959277;28;104283;-84
2021/09/05 08:26:20;;;;;;;;;2.00;1.00;;;;;18.08;47.17;99294.53;4970048;28;102018;-84
2021/09/05 08:28:48;;;;;;;;;0.00;0.00;;;;;18.10;46.66;99295.16;4975026;28;102248;-84
2021/09/05 08:31:16;;;;;;;;;1.00;1.00;;;;;18.10;46.93;99298.69;4969474;28;102677;-85
2021/09/05 08:33:43;;;;;;;;;0.00;0.00;;;;;18.13;46.86;99300.16;4962270;28;104270;-84
2021/09/05 08:36:11;;;;;;;;;0.00;0.00;;;;;18.14;46.76;99299.09;4967593;28;105469;-84
2021/09/05 08:38:38;;;;;;;;;0.00;0.00;;;;;18.17;46.85;99304.09;4985301;28;102164;-85
2021/09/05 08:41:05;;;;;;;;;0.00;0.00;;;;;18.19;47.31;99305.50;4971034;28;102534;-84
2021/09/05 08:43:33;;;;;;;;;0.00;0.00;;;;;18.20;46.81;99300.88;4977592;28;104098;-85
2021/09/05 08:46:00;;;;;;;;;0.00;0.00;;;;;18.21;46.63;99306.13;4977644;28;102423;-85
2021/09/05 08:48:27;;;;;;;;;1.00;0.00;;;;;18.23;46.53;99312.22;4951785;28;102817;-85
2021/09/05 08:50:55;;;;;;;;;0.00;0.00;;;;;18.25;47.54;99314.69;4971618;28;102818;-85
2021/09/05 08:53:23;;;;;;;;;0.00;0.00;;;;;18.25;47.31;99315.53;4983486;28;104039;-85
2021/09/05 08:55:50;;;;;;;;;0.00;0.00;;;;;18.27;46.97;99318.06;4973970;28;102501;-84
2021/09/05 08:58:17;;;;;;;;;1.00;1.00;;;;;18.30;46.89;99323.06;4984782;28;102647;-85
2021/09/05 09:00:44;;;;;;;;;0.00;0.00;;;;;18.30;47.01;99317.56;4973773;27;102594;-84
2021/09/05 09:03:21;;;;;;;;;0.00;0.00;;;;;18.31;46.81;99313.78;4974054;27;104118;-84
2021/09/05 09:05:53;;;;;;;;;0.00;0.00;;;;;18.33;46.99;99317.09;4982316;28;102790;-84
2021/09/05 09:08:21;;;;;;;;;0.00;0.00;;;;;18.34;47.45;99317.94;4980066;28;102729;-84
2021/09/05 09:10:53;;;;;;;;;0.00;0.00;;;;;18.35;46.74;99319.63;4981932;27;102122;-84
2021/09/05 09:13:39;;;;;;;;;1.00;0.67;;;;;18.37;47.05;99317.50;4988083;28;103915;-84
2021/09/05 09:16:10;;;;;;;;;0.00;0.00;;;;;18.38;47.37;99319.97;4980954;28;102570;-85
2021/09/05 09:18:39;;;;;;;;;1.33;1.00;;;;;18.39;46.95;99316.19;4973002;27;103558;-84
2021/09/05 09:21:13;;;;;;;;;0.00;0.00;;;;;18.39;47.09;99310.69;4988550;28;104289;-85
2021/09/05 09:23:40;;;;;;;;;0.00;0.00;;;;;18.43;47.21;99316.53;4959801;28;109341;-84
2021/09/05 09:26:08;;;;;;;;;0.00;0.00;;;;;18.43;47.25;99316.53;4976176;27;103703;-85
2021/09/05 09:28:36;;;;;;;;;0.00;0.00;;;;;18.42;47.35;99304.75;4980645;28;104451;-85
2021/09/05 09:31:13;;;;;;;;;0.00;0.00;;;;;18.44;46.78;99313.56;4968125;28;103143;-85
2021/09/05 09:33:41;;;;;;;;;0.00;0.00;;;;;18.45;47.28;99312.50;4961222;28;109185;-85
2021/09/05 09:36:11;;;;;;;;;0.67;0.00;;;;;18.46;47.05;99322.38;4977439;28;102168;-85
2021/09/05 09:38:40;;;;;;;;;0.00;0.00;;;;;18.47;47.51;99307.63;4966433;28;103803;-85
2021/09/05 09:41:13;;;;;;;;;0.00;0.00;;;;;18.49;47.67;99310.13;4971770;27;102314;-85
2021/09/05 09:47:38;;;;;;;;;0.00;0.00;;;;;18.51;46.77;99306.06;4976673;28;102435;-84
2021/09/05 09:50:06;;;;;;;;;0.00;0.00;;;;;18.53;47.67;99305.88;4967505;28;111174;-85
2021/09/05 09:52:35;;;;;;;;;0.00;0.00;;;;;18.53;46.91;99301.25;4979068;27;102867;-84
2021/09/05 09:55:03;;;;;;;;;1.00;0.00;;;;;18.54;47.75;99305.66;4976298;28;103249;-84
2021/09/05 09:57:31;;;;;;;;;0.00;0.00;;;;;18.55;47.96;99304.56;4969202;28;102567;-85
2021/09/05 10:00:00;;;;;;;;;0.00;0.00;;;;;18.57;48.11;99301.59;4968130;27;104065;-85
2021/09/05 10:02:27;;;;;;;;;0.33;0.00;;;;;18.58;47.45;99303.28;4976022;28;102700;-84
2021/09/05 10:04:55;;;;;;;;;0.00;0.00;;;;;18.59;48.12;99310.44;4971325;28;104049;-85
2021/09/05 10:07:22;;;;;;;;;0.00;0.00;;;;;18.60;47.94;99304.69;4976018;28;102571;-85
2021/09/05 10:09:49;;;;;;;;;0.00;0.00;;;;;18.61;48.24;99302.78;4968970;28;102635;-85
2021/09/05 10:12:17;;;;;;;;;1.00;1.00;;;;;18.63;47.58;99306.16;4975366;28;102602;-84
2021/09/05 10:14:50;;;;;;;;;0.00;0.00;;;;;18.64;47.96;99305.09;4968078;28;104194;-84
2021/09/05 10:17:19;;;;;;;;;0.00;0.00;;;;;18.64;48.15;99296.88;4946871;28;103557;-84
2021/09/05 10:19:46;;;;;;;;;0.33;0.00;;;;;18.66;47.98;99301.03;4972997;28;105150;-84
2021/09/05 10:22:15;;;;;;;;;1.00;1.00;;;;;18.66;47.95;99301.03;4956496;28;102751;-85
2021/09/05 10:24:43;;;;;;;;;0.33;0.33;;;;;18.67;47.87;99297.22;4959725;28;104474;-84
2021/09/05 10:27:10;;;;;;;;;1.00;0.00;;;;;18.68;47.83;99298.91;4972958;28;103169;-85
2021/09/05 10:29:37;;;;;;;;;1.67;0.00;;;;;18.68;47.65;99293.41;4964460;27;102551;-84
2021/09/05 10:32:05;;;;;;;;;0.00;0.00;;;;;18.69;47.87;99303.28;4971951;28;102664;-84
2021/09/05 10:34:36;;;;;;;;;0.00;0.00;;;;;18.71;47.81;99305.78;4973426;28;104294;-85
2021/09/05 10:37:07;;;;;;;;;0.00;0.00;;;;;18.73;48.24;99305.56;4967749;27;102333;-84
2021/09/05 10:39:34;;;;;;;;;0.00;0.00;;;;;18.73;48.20;99299.00;4982274;28;104007;-85
2021/09/05 10:42:01;;;;;;;;;0.00;0.00;;;;;18.75;47.97;99306.16;4981367;28;102440;-85
2021/09/05 10:44:30;;;;;;;;;0.67;0.67;;;;;18.77;48.27;99304.03;4968773;28;104062;-85
2021/09/05 10:46:58;;;;;;;;;0.67;0.67;;;;;18.78;48.07;99297.47;4960768;28;102506;-85
2021/09/05 10:49:40;;;;;;;;;0.00;0.00;;;;;18.80;48.09;99295.31;4960795;28;102507;-84
2021/09/05 10:52:07;;;;;;;;;0.33;0.33;;;;;18.80;47.61;99298.06;4976670;28;102708;-85
2021/09/05 10:54:46;;;;;;;;;0.33;0.33;;;;;18.80;48.24;99300.78;4945020;28;104025;-85
2021/09/05 10:57:13;;;;;;;;;0.33;0.00;;;;;18.82;48.20;99304.16;4939938;28;103738;-84
2021/09/05 10:59:40;;;;;;;;;1.00;0.00;;;;;18.83;48.05;99300.31;4973041;27;102403;-85
2021/09/05 11:02:07;;;;;;;;;0.00;0.00;;;;;18.84;48.24;99302.81;4981789;28;102523;-84
2021/09/05 11:04:45;;;;;;;;;0.67;0.00;;;;;18.86;48.00;99299.88;4953774;28;104233;-84
2021/09/05 11:07:33;;;;;;;;;0.00;0.00;;;;;18.87;48.17;99306.97;4984222;27;102675;-83
2021/09/05 11:10:02;;;;;;;;;0.00;0.00;;;;;18.85;48.05;99304.50;4988544;28;102740;-85
2021/09/05 11:12:42;;;;;;;;;4.33;4.00;;;;;18.88;48.06;99304.03;4978549;27;102633;-85
2021/09/05 11:15:13;;;;;;;;;14.75;13.50;;;;;18.90;48.38;99306.53;4984536;28;108019;-85
2021/09/05 11:17:42;;;;;;;;;44.25;34.25;;;;;18.91;47.95;99306.28;4969092;28;102551;-85
2021/09/05 11:20:12;;;;;;;;;17.00;15.00;;;;;18.93;48.39;99303.31;4972649;27;102666;-85
2021/09/05 11:22:48;;;;;;;;;10.67;9.67;;;;;18.94;47.92;99299.50;4976924;28;102687;-86
2021/09/05 11:25:25;;;;;;;;;13.67;12.00;;;;;18.95;48.37;99307.50;4975301;27;108327;-85
2021/09/05 11:28:00;;;;;;;;;17.50;16.00;;;;;18.97;48.45;99312.72;4956962;28;103825;-86
2021/09/05 11:30:37;;;;;;;;;18.25;15.25;;;;;18.99;48.30;99305.09;4985405;27;105878;-85
2021/09/05 11:33:07;;;;;;;;;21.00;20.25;;;;;19.00;48.55;99307.59;4967861;28;102356;-85